createdAt,value
2023-08-23T00:00:08.254Z,9.25
2023-08-23T00:02:34.919Z,8.38
2023-08-23T00:05:01.490Z,9.18
2023-08-23T00:07:28.446Z,8.77
2023-08-23T00:09:55.092Z,8.40
2023-08-23T00:12:21.606Z,8.48
2023-08-23T00:14:48.103Z,8.90
2023-08-23T00:17:14.585Z,8.25
2023-08-23T00:19:41.147Z,8.40
2023-08-23T00:22:07.733Z,8.48
2023-08-23T00:24:34.232Z,8.38
2023-08-23T00:27:00.756Z,7.85
2023-08-23T00:29:27.258Z,8.30
2023-08-23T00:31:53.724Z,7.82
2023-08-23T00:34:20.203Z,8.77
2023-08-23T00:36:47.923Z,8.85
2023-08-23T00:39:14.537Z,9.02
2023-08-23T00:41:41.271Z,7.55
2023-08-23T00:44:07.895Z,8.68
2023-08-23T00:46:35.084Z,8.15
2023-08-23T00:49:01.695Z,8.38
2023-08-23T00:51:28.315Z,8.25
2023-08-23T00:53:54.978Z,7.90
2023-08-23T00:56:21.576Z,9.15
2023-08-23T00:58:48.331Z,7.32
2023-08-23T01:01:14.824Z,8.68
2023-08-23T01:03:41.997Z,8.07
2023-08-23T01:06:17.741Z,8.02
2023-08-23T01:08:54.541Z,7.63
2023-08-23T01:11:39.134Z,8.82
2023-08-23T01:14:29.471Z,8.98
2023-08-23T01:16:59.160Z,8.40
2023-08-23T01:19:46.623Z,8.75
2023-08-23T01:22:25.211Z,8.10
2023-08-23T01:24:52.668Z,8.02
2023-08-23T01:27:19.866Z,9.32
2023-08-23T01:29:47.426Z,9.07
2023-08-23T01:32:36.085Z,9.32
2023-08-23T01:35:13.052Z,8.68
2023-08-23T01:37:41.434Z,8.85
2023-08-23T01:40:11.099Z,8.35
2023-08-23T01:42:39.735Z,8.85
2023-08-23T01:45:07.157Z,9.32
2023-08-23T01:47:33.698Z,8.75
2023-08-23T01:50:00.297Z,8.55
2023-08-23T01:52:26.858Z,8.77
2023-08-23T01:54:53.325Z,8.25
2023-08-23T01:57:19.791Z,9.27
2023-08-23T01:59:48.342Z,9.00
2023-08-23T02:02:14.900Z,8.15
2023-08-23T02:04:41.584Z,9.68
2023-08-23T02:07:08.067Z,8.70
2023-08-23T02:09:34.889Z,9.88
2023-08-23T02:12:01.366Z,9.73
2023-08-23T02:14:27.822Z,9.13
2023-08-23T02:16:54.312Z,8.02
2023-08-23T02:19:20.935Z,9.10
2023-08-23T02:21:47.518Z,8.35
2023-08-23T02:24:14.086Z,8.95
2023-08-23T02:26:40.572Z,9.77
2023-08-23T02:29:07.056Z,8.10
2023-08-23T02:31:33.650Z,8.23
2023-08-23T02:34:00.141Z,8.93
2023-08-23T02:36:26.693Z,8.65
2023-08-23T02:38:55.050Z,8.52
2023-08-23T02:41:21.685Z,8.27
2023-08-23T02:43:48.188Z,9.02
2023-08-23T02:46:14.775Z,10.10
2023-08-23T02:48:41.283Z,8.98
2023-08-23T02:51:08.100Z,9.30
2023-08-23T02:53:34.658Z,9.05
2023-08-23T02:56:01.180Z,9.80
2023-08-23T02:58:27.695Z,8.43
2023-08-23T03:00:54.218Z,8.60
2023-08-23T03:03:21.228Z,8.57
2023-08-23T03:05:58.159Z,9.02
2023-08-23T03:08:25.776Z,8.70
2023-08-23T03:10:52.661Z,9.13
2023-08-23T03:13:19.195Z,8.77
2023-08-23T03:15:54.458Z,9.10
2023-08-23T03:18:20.950Z,9.20
2023-08-23T03:20:49.414Z,8.93
2023-08-23T03:23:16.875Z,8.50
2023-08-23T03:25:45.779Z,8.48
2023-08-23T03:28:14.031Z,9.25
2023-08-23T03:30:41.585Z,8.20
2023-08-23T03:33:08.434Z,8.55
2023-08-23T03:35:35.337Z,8.75
2023-08-23T03:38:01.852Z,9.35
2023-08-23T03:40:28.318Z,9.50
2023-08-23T03:42:54.811Z,8.98
2023-08-23T03:45:21.329Z,9.25
2023-08-23T03:47:48.095Z,8.85
2023-08-23T03:50:14.756Z,9.18
2023-08-23T03:52:41.327Z,8.90
2023-08-23T03:55:08.153Z,8.55
2023-08-23T03:57:34.618Z,9.88
2023-08-23T04:00:01.101Z,9.65
2023-08-23T04:02:27.646Z,9.35
2023-08-23T04:04:54.168Z,9.98
2023-08-23T04:07:20.680Z,8.88
2023-08-23T04:09:47.154Z,10.07
2023-08-23T04:12:13.639Z,9.23
2023-08-23T04:14:40.130Z,9.10
2023-08-23T04:17:06.717Z,9.57
2023-08-23T04:19:33.222Z,9.43
2023-08-23T04:21:59.721Z,9.10
2023-08-23T04:24:26.220Z,10.52
2023-08-23T04:26:52.686Z,9.00
2023-08-23T04:29:19.164Z,9.90
2023-08-23T04:31:45.717Z,8.75
2023-08-23T04:34:12.200Z,8.60
2023-08-23T04:36:39.221Z,9.38
2023-08-23T04:39:05.708Z,10.35
2023-08-23T04:41:32.218Z,9.75
2023-08-23T04:43:58.708Z,8.52
2023-08-23T04:46:25.317Z,9.73
2023-08-23T04:48:51.873Z,9.05
2023-08-23T04:51:18.365Z,8.73
2023-08-23T04:53:44.824Z,9.10
2023-08-23T04:56:11.403Z,8.40
2023-08-23T04:58:37.996Z,8.68
2023-08-23T05:01:07.502Z,8.65
2023-08-23T05:03:35.541Z,8.55
2023-08-23T05:06:02.728Z,9.85
2023-08-23T05:08:30.524Z,8.20
2023-08-23T05:10:57.341Z,8.40
2023-08-23T05:13:24.249Z,8.30
2023-08-23T05:15:58.226Z,8.00
2023-08-23T05:18:25.444Z,8.65
2023-08-23T05:20:56.118Z,8.82
2023-08-23T05:23:23.561Z,8.00
2023-08-23T05:25:52.232Z,8.13
2023-08-23T05:28:20.051Z,9.43
2023-08-23T05:30:47.413Z,8.63
2023-08-23T05:33:14.423Z,9.38
2023-08-23T05:35:42.365Z,8.98
2023-08-23T05:38:11.001Z,8.98
2023-08-23T05:40:38.893Z,8.70
2023-08-23T05:43:06.207Z,9.38
2023-08-23T05:45:32.833Z,9.68
2023-08-23T05:48:00.471Z,9.65
2023-08-23T05:50:27.251Z,9.38
2023-08-23T05:52:53.743Z,8.40
2023-08-23T05:55:20.418Z,10.07
2023-08-23T05:57:47.225Z,10.07
2023-08-23T06:00:15.334Z,9.80
2023-08-23T06:02:42.026Z,9.63
2023-08-23T06:05:08.920Z,8.77
2023-08-23T06:07:35.408Z,9.68
2023-08-23T06:10:02.031Z,9.50
2023-08-23T06:12:28.925Z,9.52
2023-08-23T06:14:56.324Z,9.60
2023-08-23T06:17:22.937Z,8.93
2023-08-23T06:19:49.397Z,9.23
2023-08-23T06:22:15.916Z,8.25
2023-08-23T06:24:42.382Z,8.68
2023-08-23T06:27:11.206Z,9.20
2023-08-23T06:29:42.033Z,9.32
2023-08-23T06:32:09.153Z,9.60
2023-08-23T06:34:36.185Z,8.55
2023-08-23T06:37:03.155Z,9.80
2023-08-23T06:39:34.227Z,9.95
2023-08-23T06:42:01.208Z,10.25
2023-08-23T06:44:27.775Z,9.85
2023-08-23T06:46:54.329Z,9.52
2023-08-23T06:49:20.860Z,10.30
2023-08-23T06:51:47.324Z,10.32
2023-08-23T06:54:13.787Z,10.45
2023-08-23T06:56:40.286Z,10.35
2023-08-23T06:59:06.862Z,8.90
2023-08-23T07:01:33.404Z,10.00
2023-08-23T07:04:00.370Z,10.35
2023-08-23T07:06:26.969Z,9.60
2023-08-23T07:08:53.420Z,10.18
2023-08-23T07:11:19.898Z,10.77
2023-08-23T07:13:46.421Z,9.90
2023-08-23T07:16:12.961Z,10.57
2023-08-23T07:18:39.465Z,10.55
2023-08-23T07:21:05.909Z,10.15
2023-08-23T07:23:32.480Z,10.85
2023-08-23T07:25:59.020Z,9.85
2023-08-23T07:28:28.545Z,9.95
2023-08-23T07:30:58.480Z,8.93
2023-08-23T07:33:26.036Z,9.95
2023-08-23T07:35:59.846Z,10.52
2023-08-23T07:38:27.918Z,10.63
2023-08-23T07:40:58.751Z,10.13
2023-08-23T07:43:25.907Z,10.57
2023-08-23T07:45:56.977Z,11.30
2023-08-23T07:48:24.721Z,10.60
2023-08-23T07:50:58.568Z,10.52
2023-08-23T07:53:25.399Z,12.75
2023-08-23T07:55:51.946Z,10.35
2023-08-23T07:58:18.712Z,12.20
2023-08-23T08:00:45.349Z,11.75
2023-08-23T08:03:12.519Z,9.82
2023-08-23T08:05:39.556Z,11.93
2023-08-23T08:08:09.754Z,11.00
2023-08-23T08:13:03.997Z,11.63
2023-08-23T08:15:31.042Z,10.48
2023-08-23T08:17:57.596Z,9.48
2023-08-23T08:20:27.210Z,9.52
2023-08-23T08:22:53.977Z,9.63
2023-08-23T08:25:21.313Z,10.00
2023-08-23T08:27:48.511Z,9.85
2023-08-23T08:30:15.562Z,10.68
2023-08-23T08:32:42.360Z,9.57
2023-08-23T08:35:09.452Z,10.02
2023-08-23T08:37:36.309Z,10.25
2023-08-23T08:40:03.061Z,10.75
2023-08-23T08:42:30.395Z,10.13
2023-08-23T08:44:57.563Z,11.43
2023-08-23T08:47:25.193Z,10.82
2023-08-23T08:49:52.282Z,10.50
2023-08-23T08:52:20.916Z,9.50
2023-08-23T08:54:49.257Z,10.57
2023-08-23T08:57:16.291Z,10.23
2023-08-23T08:59:43.969Z,9.65
2023-08-23T09:02:13.434Z,10.40
2023-08-23T09:04:40.452Z,10.27
2023-08-23T09:07:07.202Z,9.93
2023-08-23T09:09:34.339Z,9.88
2023-08-23T09:12:00.838Z,10.38
2023-08-23T09:14:29.133Z,10.73
2023-08-23T09:16:56.207Z,9.65
2023-08-23T09:19:23.298Z,11.18
2023-08-23T09:21:50.646Z,10.20
2023-08-23T09:24:18.588Z,10.15
2023-08-23T09:26:46.121Z,10.82
2023-08-23T09:29:13.319Z,10.25
2023-08-23T09:31:42.834Z,10.93
2023-08-23T09:34:15.128Z,11.48
2023-08-23T09:36:41.776Z,9.80
2023-08-23T09:39:10.603Z,10.27
2023-08-23T09:41:55.058Z,10.10
2023-08-23T09:44:24.257Z,9.98
2023-08-23T09:46:53.210Z,12.30
2023-08-23T09:49:21.807Z,10.40
2023-08-23T09:51:51.056Z,11.60
2023-08-23T09:54:51.050Z,10.80
2023-08-23T09:57:27.046Z,9.38
2023-08-23T09:59:54.134Z,9.88
2023-08-23T10:02:20.751Z,10.25
2023-08-23T10:04:47.311Z,9.55
2023-08-23T10:07:16.937Z,10.43
2023-08-23T10:09:44.582Z,9.23
2023-08-23T10:12:12.067Z,10.63
2023-08-23T10:14:42.560Z,9.77
2023-08-23T10:19:38.882Z,9.82
2023-08-23T10:22:05.496Z,8.50
2023-08-23T10:24:32.402Z,9.90
2023-08-23T10:27:09.845Z,10.25
2023-08-23T10:29:39.932Z,10.30
2023-08-23T10:32:09.427Z,9.45
2023-08-23T10:34:39.008Z,9.55
2023-08-23T10:37:20.480Z,10.75
2023-08-23T10:39:56.342Z,10.38
2023-08-23T10:42:23.500Z,9.35
2023-08-23T10:45:06.462Z,10.15
2023-08-23T10:50:05.196Z,9.13
2023-08-23T10:52:31.790Z,9.27
2023-08-23T10:54:58.664Z,8.93
2023-08-23T10:57:25.148Z,8.70
2023-08-23T10:59:51.692Z,9.85
2023-08-23T11:02:18.526Z,9.75
2023-08-23T11:04:45.076Z,8.68
2023-08-23T11:07:12.337Z,8.90
2023-08-23T11:09:38.844Z,9.60
2023-08-23T11:12:05.859Z,8.25
2023-08-23T11:14:32.355Z,8.52
2023-08-23T11:16:59.062Z,8.80
2023-08-23T11:19:25.690Z,8.32
2023-08-23T11:21:52.951Z,8.45
2023-08-23T11:24:19.566Z,9.30
2023-08-23T11:26:46.063Z,9.70
2023-08-23T11:29:12.732Z,8.25
2023-08-23T11:31:39.247Z,8.70
2023-08-23T11:34:07.933Z,8.02
2023-08-23T11:36:35.528Z,8.27
2023-08-23T11:39:04.714Z,9.20
2023-08-23T11:41:35.403Z,8.10
2023-08-23T11:44:05.949Z,9.02
2023-08-23T11:46:35.185Z,8.70
2023-08-23T11:49:10.339Z,9.32
2023-08-23T11:51:40.868Z,8.63
2023-08-23T11:54:07.586Z,8.77
2023-08-23T11:56:34.608Z,8.57
2023-08-23T11:59:01.160Z,9.50
2023-08-23T12:01:28.690Z,9.00
2023-08-23T12:03:55.359Z,9.07
2023-08-23T12:06:22.035Z,8.55
2023-08-23T12:08:48.508Z,8.88
2023-08-23T12:11:15.866Z,9.25
2023-08-23T12:13:42.867Z,8.65
2023-08-23T12:16:09.423Z,7.80
2023-08-23T12:18:37.096Z,8.48
2023-08-23T12:21:03.773Z,8.90
2023-08-23T12:23:30.214Z,9.10
2023-08-23T12:25:56.705Z,8.00
2023-08-23T12:28:23.308Z,9.40
2023-08-23T12:30:49.855Z,8.75
2023-08-23T12:33:16.353Z,8.55
2023-08-23T12:35:43.193Z,8.45
2023-08-23T12:38:09.676Z,8.68
2023-08-23T12:40:36.195Z,8.52
2023-08-23T12:43:03.709Z,8.32
2023-08-23T12:45:30.671Z,8.15
2023-08-23T12:47:59.429Z,7.60
2023-08-23T12:50:26.264Z,8.25
2023-08-23T12:52:52.811Z,7.18
2023-08-23T12:55:19.364Z,8.15
2023-08-23T12:57:46.962Z,9.23
2023-08-23T13:00:28.703Z,8.10
2023-08-23T13:02:56.306Z,8.40
2023-08-23T13:05:22.783Z,7.57
2023-08-23T13:07:49.495Z,8.57
2023-08-23T13:10:17.180Z,8.30
2023-08-23T13:12:43.638Z,9.02
2023-08-23T13:15:10.484Z,8.15
2023-08-23T13:17:37.230Z,7.47
2023-08-23T13:20:06.207Z,9.07
2023-08-23T13:22:32.697Z,7.75
2023-08-23T13:24:59.325Z,7.57
2023-08-23T13:27:25.927Z,7.90
2023-08-23T13:29:52.387Z,8.07
2023-08-23T13:32:27.325Z,7.57
2023-08-23T13:34:54.688Z,8.48
2023-08-23T13:37:21.298Z,7.93
2023-08-23T13:39:47.788Z,8.00
2023-08-23T13:42:14.275Z,7.65
2023-08-23T13:44:41.412Z,7.00
2023-08-23T13:47:07.955Z,6.63
2023-08-23T13:49:34.470Z,7.43
2023-08-23T13:52:00.951Z,6.68
2023-08-23T13:54:27.455Z,6.57
2023-08-23T13:56:53.947Z,6.68
2023-08-23T13:59:20.513Z,6.00
2023-08-23T14:01:47.163Z,6.07
2023-08-23T14:04:14.813Z,6.22
2023-08-23T14:06:41.449Z,6.65
2023-08-23T14:09:09.680Z,6.22
2023-08-23T14:11:37.307Z,5.95
2023-08-23T14:14:05.102Z,7.07
2023-08-23T14:16:31.779Z,6.43
2023-08-23T14:18:58.369Z,6.65
2023-08-23T14:21:24.904Z,6.22
2023-08-23T14:23:51.433Z,5.93
2023-08-23T14:26:17.909Z,5.95
2023-08-23T14:28:45.979Z,5.72
2023-08-23T14:31:13.015Z,7.05
2023-08-23T14:33:39.609Z,6.72
2023-08-23T14:36:06.287Z,5.95
2023-08-23T14:38:32.804Z,6.05
2023-08-23T14:40:59.303Z,6.47
2023-08-23T14:43:25.905Z,5.53
2023-08-23T14:45:53.245Z,5.45
2023-08-23T14:48:19.977Z,5.38
2023-08-23T14:50:46.620Z,5.13
2023-08-23T14:53:13.174Z,5.13
2023-08-23T14:55:39.731Z,4.82
2023-08-23T14:58:06.251Z,5.70
2023-08-23T15:00:34.389Z,5.38
2023-08-23T15:03:01.320Z,5.55
2023-08-23T15:05:27.989Z,5.63
2023-08-23T15:07:54.488Z,5.45
2023-08-23T15:10:21.679Z,5.20
2023-08-23T15:12:48.155Z,6.05
2023-08-23T15:15:17.203Z,5.22
2023-08-23T15:17:44.243Z,5.40
2023-08-23T15:20:11.347Z,6.93
2023-08-23T15:22:37.947Z,6.07
2023-08-23T15:25:04.965Z,7.00
2023-08-23T15:27:42.674Z,5.97
2023-08-23T15:30:14.830Z,5.32
2023-08-23T15:32:41.591Z,5.47
2023-08-23T15:35:08.653Z,5.90
2023-08-23T15:37:35.192Z,6.55
2023-08-23T15:40:01.889Z,5.72
2023-08-23T15:42:28.377Z,6.30
2023-08-23T15:44:54.890Z,6.38
2023-08-23T15:47:21.741Z,6.80
2023-08-23T15:49:48.305Z,6.57
2023-08-23T15:52:14.850Z,6.28
2023-08-23T15:54:42.525Z,6.60
2023-08-23T15:57:09.050Z,7.05
2023-08-23T15:59:36.269Z,6.70
2023-08-23T16:02:04.197Z,6.75
2023-08-23T16:04:30.891Z,6.68
2023-08-23T16:06:58.660Z,6.90
2023-08-23T16:09:26.401Z,6.57
2023-08-23T16:11:53.574Z,6.57
2023-08-23T16:14:20.302Z,6.57
2023-08-23T16:16:46.974Z,7.15
2023-08-23T16:19:13.804Z,6.38
2023-08-23T16:21:41.895Z,6.95
2023-08-23T16:24:08.478Z,6.80
2023-08-23T16:26:35.211Z,6.82
2023-08-23T16:29:01.983Z,6.70
2023-08-23T16:31:28.510Z,6.40
2023-08-23T16:33:55.034Z,6.70
2023-08-23T16:36:21.530Z,6.43
2023-08-23T16:38:49.876Z,6.53
2023-08-23T16:41:16.385Z,7.13
2023-08-23T16:43:42.860Z,6.88
2023-08-23T16:46:09.411Z,6.35
2023-08-23T16:48:36.047Z,7.03
2023-08-23T16:51:04.763Z,7.60
2023-08-23T16:53:31.304Z,6.88
2023-08-23T16:55:57.799Z,6.30
2023-08-23T16:58:24.294Z,5.80
2023-08-23T17:00:50.871Z,6.43
2023-08-23T17:03:17.697Z,5.75
2023-08-23T17:05:44.291Z,6.65
2023-08-23T17:08:10.870Z,5.95
2023-08-23T17:10:37.405Z,6.93
2023-08-23T17:13:04.111Z,6.57
2023-08-23T17:15:30.613Z,6.45
2023-08-23T17:17:57.162Z,6.10
2023-08-23T17:20:23.719Z,6.53
2023-08-23T17:22:52.080Z,6.78
2023-08-23T17:25:20.308Z,6.72
2023-08-23T17:27:46.798Z,6.38
2023-08-23T17:30:14.053Z,7.05
2023-08-23T17:32:40.595Z,6.57
2023-08-23T17:35:08.954Z,6.72
2023-08-23T17:37:35.439Z,5.75
2023-08-23T17:40:02.203Z,8.13
2023-08-23T17:42:28.822Z,6.30
2023-08-23T17:44:55.369Z,6.47
2023-08-23T17:47:24.258Z,6.70
2023-08-23T17:49:50.853Z,7.18
2023-08-23T17:52:17.370Z,7.05
2023-08-23T17:54:43.871Z,6.40
2023-08-23T17:57:10.685Z,6.50
2023-08-23T17:59:37.985Z,7.07
2023-08-23T18:02:04.989Z,6.68
2023-08-23T18:04:32.287Z,7.43
2023-08-23T18:06:58.803Z,6.80
2023-08-23T18:09:25.352Z,7.10
2023-08-23T18:11:51.894Z,6.60
2023-08-23T18:14:18.372Z,7.18
2023-08-23T18:16:44.931Z,7.05
2023-08-23T18:19:11.529Z,7.07
2023-08-23T18:21:38.061Z,7.07
2023-08-23T18:24:04.609Z,7.50
2023-08-23T18:26:32.148Z,6.95
2023-08-23T18:28:58.642Z,7.93
2023-08-23T18:31:25.685Z,7.47
2023-08-23T18:33:52.138Z,8.02
2023-08-23T18:36:18.908Z,7.78
2023-08-23T18:38:45.388Z,7.47
2023-08-23T18:41:11.855Z,8.10
2023-08-23T18:43:38.375Z,8.32
2023-08-23T18:46:04.921Z,7.93
2023-08-23T18:48:31.481Z,7.25
2023-08-23T18:50:59.686Z,7.57
2023-08-23T18:53:27.460Z,6.90
2023-08-23T18:55:54.180Z,7.70
2023-08-23T18:58:20.945Z,7.50
2023-08-23T19:00:48.001Z,6.88
2023-08-23T19:03:17.216Z,8.05
2023-08-23T19:05:44.711Z,7.07
2023-08-23T19:08:11.497Z,8.30
2023-08-23T19:10:39.548Z,7.47
2023-08-23T19:13:06.116Z,7.25
2023-08-23T19:15:34.310Z,7.43
2023-08-23T19:18:01.038Z,7.30
2023-08-23T19:20:27.702Z,7.20
2023-08-23T19:22:54.206Z,8.35
2023-08-23T19:25:20.776Z,7.78
2023-08-23T19:27:48.847Z,6.93
2023-08-23T19:30:16.972Z,8.65
2023-08-23T19:32:43.551Z,8.07
2023-08-23T19:35:10.104Z,7.63
2023-08-23T19:37:37.064Z,7.85
2023-08-23T19:40:07.033Z,8.30
2023-08-23T19:42:34.042Z,7.43
2023-08-23T19:45:03.912Z,7.20
2023-08-23T19:47:30.965Z,7.82
2023-08-23T19:50:02.412Z,7.85
2023-08-23T19:52:29.047Z,8.75
2023-08-23T19:54:55.789Z,7.03
2023-08-23T19:57:32.725Z,7.43
2023-08-23T19:59:59.460Z,7.10
2023-08-23T20:02:26.082Z,7.30
2023-08-23T20:04:52.837Z,7.20
2023-08-23T20:07:22.934Z,7.05
2023-08-23T20:09:49.451Z,6.65
2023-08-23T20:12:15.942Z,7.25
2023-08-23T20:14:42.424Z,7.47
2023-08-23T20:17:08.956Z,6.72
2023-08-23T20:19:35.507Z,6.85
2023-08-23T20:22:01.986Z,6.15
2023-08-23T20:24:28.712Z,7.07
2023-08-23T20:26:55.265Z,7.18
2023-08-23T20:29:21.754Z,6.90
2023-08-23T20:31:48.358Z,7.35
2023-08-23T20:34:14.893Z,6.80
2023-08-23T20:36:41.355Z,6.43
2023-08-23T20:39:07.907Z,7.20
2023-08-23T20:41:34.448Z,6.70
2023-08-23T20:44:00.932Z,7.68
2023-08-23T20:46:27.372Z,7.18
2023-08-23T20:48:53.873Z,7.53
2023-08-23T20:51:20.327Z,7.53
2023-08-23T20:53:46.813Z,6.75
2023-08-23T20:56:16.079Z,7.15
2023-08-23T20:58:42.798Z,7.00
2023-08-23T21:01:09.633Z,8.52
2023-08-23T21:03:37.642Z,7.38
2023-08-23T21:06:04.188Z,8.13
2023-08-23T21:08:31.401Z,8.02
2023-08-23T21:11:01.223Z,8.18
2023-08-23T21:13:29.060Z,7.63
2023-08-23T21:15:56.829Z,8.43
2023-08-23T21:18:23.556Z,9.35
2023-08-23T21:20:50.723Z,8.95
2023-08-23T21:23:17.352Z,8.43
2023-08-23T21:25:43.908Z,8.48
2023-08-23T21:28:10.806Z,8.10
2023-08-23T21:30:37.427Z,8.98
2023-08-23T21:33:04.463Z,8.30
2023-08-23T21:35:31.779Z,8.05
2023-08-23T21:37:59.244Z,7.97
2023-08-23T21:40:25.932Z,8.23
2023-08-23T21:42:52.459Z,8.73
2023-08-23T21:45:18.919Z,10.50
2023-08-23T21:47:46.279Z,8.75
2023-08-23T21:50:12.874Z,8.25
2023-08-23T21:52:39.523Z,9.23
2023-08-23T21:55:07.185Z,8.98
2023-08-23T21:57:34.009Z,8.70
2023-08-23T22:00:00.569Z,8.88
2023-08-23T22:02:27.245Z,9.90
2023-08-23T22:04:53.810Z,8.73
2023-08-23T22:07:20.287Z,7.63
2023-08-23T22:09:46.860Z,8.60
2023-08-23T22:12:13.341Z,7.65
2023-08-23T22:14:40.183Z,9.20
2023-08-23T22:17:06.641Z,8.75
2023-08-23T22:19:33.968Z,6.85
2023-08-23T22:22:00.676Z,8.80
2023-08-23T22:24:27.472Z,7.88
2023-08-23T22:26:54.019Z,8.77
2023-08-23T22:29:21.269Z,8.65
2023-08-23T22:31:47.739Z,9.52
2023-08-23T22:34:14.241Z,10.05
2023-08-23T22:36:40.717Z,9.07
2023-08-23T22:39:07.802Z,8.90
2023-08-23T22:41:34.324Z,9.18
2023-08-23T22:44:00.869Z,8.73
2023-08-23T22:46:32.459Z,8.57
2023-08-23T22:49:00.432Z,9.50
2023-08-23T22:51:27.038Z,10.27
2023-08-23T22:53:55.036Z,9.25
2023-08-23T22:56:21.648Z,9.63
2023-08-23T22:58:48.201Z,8.68
2023-08-23T23:01:15.161Z,7.30
2023-08-23T23:03:41.828Z,9.77
2023-08-23T23:06:08.560Z,9.73
2023-08-23T23:08:36.009Z,9.25
2023-08-23T23:11:05.294Z,9.48
2023-08-23T23:13:32.224Z,11.02
2023-08-23T23:16:06.035Z,9.65
2023-08-23T23:18:36.094Z,9.55
2023-08-23T23:21:04.315Z,9.73
2023-08-23T23:23:31.087Z,8.75
2023-08-23T23:25:57.588Z,9.55
2023-08-23T23:28:24.177Z,10.52
2023-08-23T23:30:50.712Z,10.35
2023-08-23T23:33:17.213Z,10.20
2023-08-23T23:35:44.350Z,10.60
2023-08-23T23:38:10.994Z,9.57
2023-08-23T23:40:41.066Z,9.63
2023-08-23T23:43:07.874Z,10.48
2023-08-23T23:45:41.259Z,9.45
2023-08-23T23:48:08.362Z,9.63
2023-08-23T23:50:35.213Z,10.23
2023-08-23T23:53:02.129Z,9.93
2023-08-23T23:55:33.586Z,10.10
2023-08-23T23:58:00.236Z,10.50
